Terminal Aerodrome Forecast
Issued by NWS Wichita, KS

Home | Current Version | Previous Version | Text Only | Print | Product List | Glossary On
Versions: 1 2 3 4 5 6 7 8 9 10 11 12
000
FTUS43 KICT 261700
TAFICT
TAF
KICT 261732Z 2618/2718 21016G23KT P6SM SCT130
     FM270100 19010KT P6SM SCT100
     FM270600 01009KT P6SM VCTS BKN100CB
     FM271400 02013KT P6SM FEW040 BKN120=

USA.gov is the U.S. government's official web portal to all federal, state and local government web resources and services.